createdAt,value
2023-03-21T00:00:40.482Z,10.35
2023-03-21T00:08:17.560Z,9.25
2023-03-21T00:10:45.231Z,10.13
2023-03-21T00:13:13.613Z,12.65
2023-03-21T00:18:48.886Z,11.85
2023-03-21T00:21:42.321Z,10.98
2023-03-21T00:24:08.046Z,11.00
2023-03-21T00:29:03.346Z,12.23
2023-03-21T00:31:30.750Z,13.02
2023-03-21T00:33:58.066Z,12.13
2023-03-21T00:36:28.335Z,12.50
2023-03-21T00:38:56.020Z,11.93
2023-03-21T00:41:40.926Z,12.18
2023-03-21T00:44:15.765Z,11.82
2023-03-21T00:46:54.422Z,12.75
2023-03-21T00:49:24.695Z,12.82
2023-03-21T00:51:53.327Z,12.83
2023-03-21T00:54:20.849Z,11.90
2023-03-21T00:56:48.365Z,11.77
2023-03-21T00:59:16.681Z,11.00
2023-03-21T01:01:46.760Z,11.75
2023-03-21T01:04:16.737Z,10.85
2023-03-21T01:06:45.281Z,10.90
2023-03-21T01:09:20.750Z,11.32
2023-03-21T01:11:49.505Z,11.15
2023-03-21T01:14:22.861Z,11.20
2023-03-21T01:16:53.419Z,11.98
2023-03-21T01:19:44.254Z,11.50
2023-03-21T01:22:16.232Z,11.73
2023-03-21T01:24:53.810Z,12.55
2023-03-21T01:27:22.996Z,11.90
2023-03-21T01:29:50.983Z,10.90
2023-03-21T01:32:18.476Z,12.13
2023-03-21T01:34:46.070Z,12.67
2023-03-21T01:37:14.561Z,11.70
2023-03-21T01:39:47.434Z,12.07
2023-03-21T01:42:15.546Z,12.43
2023-03-21T01:45:06.054Z,11.35
2023-03-21T01:47:42.159Z,11.85
2023-03-21T01:50:25.755Z,11.23
2023-03-21T01:53:18.761Z,11.52
2023-03-21T01:55:47.849Z,11.35
2023-03-21T01:58:30.091Z,11.10
2023-03-21T02:01:06.583Z,10.43
2023-03-21T02:03:50.864Z,10.23
2023-03-21T02:06:46.806Z,10.65
2023-03-21T02:09:48.891Z,10.48
2023-03-21T02:12:20.589Z,10.73
2023-03-21T02:14:51.635Z,12.30
2023-03-21T02:18:00.676Z,11.50
2023-03-21T02:20:54.505Z,12.43
2023-03-21T02:24:02.031Z,11.80
2023-03-21T02:26:42.300Z,12.10
2023-03-21T02:29:30.535Z,12.65
2023-03-21T02:32:17.876Z,11.93
2023-03-21T02:35:51.886Z,11.25
2023-03-21T02:38:36.689Z,12.68
2023-03-21T02:41:19.601Z,12.57
2023-03-21T02:44:34.925Z,12.65
2023-03-21T02:47:11.825Z,11.88
2023-03-21T02:50:02.759Z,11.88
2023-03-21T02:52:39.483Z,11.60
2023-03-21T02:55:37.357Z,12.18
2023-03-21T02:58:13.473Z,11.82
2023-03-21T03:00:55.353Z,12.20
2023-03-21T03:03:35.153Z,12.45
2023-03-21T03:06:17.884Z,10.65
2023-03-21T03:09:12.472Z,12.20
2023-03-21T03:11:44.577Z,12.80
2023-03-21T03:15:02.810Z,15.55
2023-03-21T03:17:51.138Z,14.73
2023-03-21T03:20:33.137Z,11.05
2023-03-21T03:23:27.878Z,11.38
2023-03-21T03:26:23.464Z,11.38
2023-03-21T03:29:01.164Z,11.88
2023-03-21T03:31:37.795Z,11.95
2023-03-21T03:34:16.683Z,12.00
2023-03-21T03:36:51.772Z,13.25
2023-03-21T03:39:19.290Z,14.60
2023-03-21T03:42:21.907Z,13.25
2023-03-21T03:44:59.807Z,12.10
2023-03-21T03:47:37.801Z,13.60
2023-03-21T03:50:48.108Z,16.10
2023-03-21T03:53:42.728Z,11.65
2023-03-21T03:56:12.589Z,10.68
2023-03-21T03:58:45.658Z,10.65
2023-03-21T04:01:17.651Z,11.73
2023-03-21T04:06:24.443Z,12.45
2023-03-21T04:08:52.861Z,10.65
2023-03-21T04:11:20.970Z,11.30
2023-03-21T04:13:52.527Z,11.27
2023-03-21T04:16:24.267Z,13.15
2023-03-21T04:18:52.541Z,14.73
2023-03-21T04:21:21.661Z,21.07
2023-03-21T04:23:49.039Z,16.27
2023-03-21T04:26:16.810Z,16.25
2023-03-21T04:28:54.513Z,20.33
2023-03-21T04:31:27.251Z,14.27
2023-03-21T04:34:12.407Z,14.85
2023-03-21T04:36:47.440Z,15.82
2023-03-21T04:39:16.192Z,17.08
2023-03-21T04:41:48.200Z,15.23
2023-03-21T04:46:45.426Z,13.20
2023-03-21T04:49:13.797Z,13.05
2023-03-21T04:51:45.242Z,12.55
2023-03-21T04:59:14.552Z,11.93
2023-03-21T05:01:43.974Z,12.73
2023-03-21T05:04:14.786Z,16.08
2023-03-21T05:06:43.130Z,11.18
2023-03-21T05:11:41.288Z,10.63
2023-03-21T05:14:15.588Z,10.30
2023-03-21T05:16:48.704Z,10.10
2023-03-21T05:19:19.356Z,10.98
2023-03-21T05:21:48.879Z,11.95
2023-03-21T05:24:28.776Z,13.45
2023-03-21T05:26:56.503Z,13.87
2023-03-21T05:29:33.810Z,12.48
2023-03-21T05:32:04.442Z,12.48
2023-03-21T05:34:32.181Z,11.90
2023-03-21T05:37:00.555Z,12.05
2023-03-21T05:39:38.290Z,12.68
2023-03-21T05:42:12.641Z,13.82
2023-03-21T05:44:40.690Z,15.38
2023-03-21T05:47:10.027Z,14.30
2023-03-21T05:49:45.807Z,14.10
2023-03-21T05:52:13.704Z,15.07
2023-03-21T05:54:41.090Z,13.55
2023-03-21T05:57:09.003Z,13.37
2023-03-21T05:59:49.934Z,11.98
2023-03-21T06:02:19.291Z,13.10
2023-03-21T06:04:48.160Z,11.77
2023-03-21T06:07:15.775Z,10.43
2023-03-21T06:09:43.331Z,10.80
2023-03-21T06:12:12.928Z,12.80
2023-03-21T06:15:08.928Z,12.38
2023-03-21T06:17:51.335Z,12.00
2023-03-21T06:20:19.015Z,11.83
2023-03-21T06:22:51.840Z,11.60
2023-03-21T06:25:19.431Z,11.13
2023-03-21T06:27:46.917Z,11.07
2023-03-21T06:30:16.154Z,11.57
2023-03-21T06:32:55.620Z,10.45
2023-03-21T06:35:23.063Z,10.00
2023-03-21T06:37:51.084Z,11.13
2023-03-21T06:40:20.056Z,12.30
2023-03-21T06:42:47.646Z,11.80
2023-03-21T06:45:15.580Z,10.32
2023-03-21T06:50:20.473Z,23.50
2023-03-21T06:52:48.792Z,14.98
2023-03-21T06:55:19.351Z,16.15
2023-03-21T06:57:47.276Z,14.80
2023-03-21T07:00:15.721Z,13.40
2023-03-21T07:02:47.879Z,12.43
2023-03-21T07:05:19.584Z,11.20
2023-03-21T07:07:46.972Z,11.57
2023-03-21T07:10:14.798Z,11.77
2023-03-21T07:12:55.222Z,10.25
2023-03-21T07:15:29.891Z,9.55
2023-03-21T07:17:57.298Z,9.73
2023-03-21T07:20:26.714Z,10.07
2023-03-21T07:22:54.157Z,10.50
2023-03-21T07:25:22.260Z,10.60
2023-03-21T07:27:50.747Z,8.23
2023-03-21T07:30:18.628Z,10.27
2023-03-21T07:32:47.605Z,11.68
2023-03-21T07:35:17.730Z,13.15
2023-03-21T07:37:45.480Z,9.68
2023-03-21T07:40:17.232Z,9.68
2023-03-21T07:42:45.780Z,9.70
2023-03-21T07:45:21.227Z,9.63
2023-03-21T07:47:49.807Z,9.93
2023-03-21T07:55:13.174Z,7.97
2023-03-21T07:57:41.074Z,8.05
2023-03-21T08:00:09.629Z,9.57
2023-03-21T08:02:45.854Z,12.00
2023-03-21T08:05:13.331Z,11.57
2023-03-21T08:07:40.776Z,10.25
2023-03-21T08:10:10.780Z,10.77
2023-03-21T08:12:38.114Z,8.35
2023-03-21T08:15:06.291Z,9.07
2023-03-21T08:20:01.071Z,9.02
2023-03-21T08:22:28.420Z,9.43
2023-03-21T08:24:55.930Z,7.07
2023-03-21T08:27:23.323Z,7.45
2023-03-21T08:29:50.868Z,8.63
2023-03-21T08:32:19.408Z,7.38
2023-03-21T08:34:46.879Z,7.95
2023-03-21T08:37:14.604Z,8.65
2023-03-21T08:39:42.100Z,7.40
2023-03-21T08:42:09.718Z,7.97
2023-03-21T08:44:38.939Z,7.10
2023-03-21T08:47:06.601Z,7.97
2023-03-21T08:49:36.325Z,7.85
2023-03-21T08:52:06.210Z,9.05
2023-03-21T08:54:33.638Z,8.88
2023-03-21T08:57:01.061Z,8.60
2023-03-21T08:59:28.401Z,8.05
2023-03-21T09:01:55.863Z,7.85
2023-03-21T09:04:27.371Z,8.93
2023-03-21T09:06:56.317Z,10.60
2023-03-21T09:09:25.263Z,9.15
2023-03-21T09:11:52.699Z,10.35
2023-03-21T09:14:21.913Z,17.83
2023-03-21T09:16:52.109Z,7.43
2023-03-21T09:19:19.818Z,8.63
2023-03-21T09:21:47.873Z,7.47
2023-03-21T09:29:11.750Z,27.50
2023-03-21T09:31:40.138Z,10.15
2023-03-21T09:34:07.664Z,6.30
2023-03-21T09:36:36.310Z,9.38
2023-03-21T09:39:04.840Z,8.10
2023-03-21T09:42:12.654Z,7.10
2023-03-21T09:45:06.267Z,5.90
2023-03-21T09:47:49.747Z,6.45
2023-03-21T09:50:33.858Z,6.43
2023-03-21T09:53:09.927Z,6.70
2023-03-21T09:55:41.299Z,6.97
2023-03-21T09:58:29.156Z,7.30
2023-03-21T10:01:28.351Z,6.80
2023-03-21T10:04:00.655Z,8.20
2023-03-21T10:06:30.693Z,8.35
2023-03-21T10:09:16.756Z,7.28
2023-03-21T10:12:03.179Z,6.93
2023-03-21T10:14:34.918Z,8.30
2023-03-21T10:17:43.467Z,8.40
2023-03-21T10:20:14.408Z,8.80
2023-03-21T10:22:46.062Z,7.50
2023-03-21T10:25:34.605Z,7.63
2023-03-21T10:28:05.605Z,7.72
2023-03-21T10:30:48.127Z,9.60
2023-03-21T10:33:26.469Z,8.10
2023-03-21T10:36:01.147Z,7.40
2023-03-21T10:38:29.973Z,7.00
2023-03-21T10:40:57.474Z,6.82
2023-03-21T10:43:27.584Z,7.85
2023-03-21T10:45:56.293Z,6.90
2023-03-21T10:48:25.124Z,7.50
2023-03-21T10:50:56.189Z,7.30
2023-03-21T10:53:35.673Z,7.20
2023-03-21T10:56:10.049Z,7.60
2023-03-21T10:58:47.488Z,6.72
2023-03-21T11:01:30.569Z,8.32
2023-03-21T11:04:01.639Z,6.70
2023-03-21T11:06:33.595Z,7.15
2023-03-21T11:09:09.719Z,7.07
2023-03-21T11:12:10.037Z,7.47
2023-03-21T11:14:51.022Z,7.00
2023-03-21T11:17:18.318Z,9.65
2023-03-21T11:20:11.323Z,7.95
2023-03-21T11:22:44.455Z,7.82
2023-03-21T11:25:21.339Z,7.72
2023-03-21T11:27:53.066Z,7.47
2023-03-21T11:30:27.163Z,12.88
2023-03-21T11:32:58.748Z,7.43
2023-03-21T11:35:35.736Z,12.77
2023-03-21T11:38:05.645Z,8.90
2023-03-21T11:40:36.934Z,6.80
2023-03-21T11:43:30.509Z,7.97
2023-03-21T11:46:13.325Z,9.57
2023-03-21T11:48:45.397Z,8.50
2023-03-21T11:51:46.457Z,11.80
2023-03-21T11:54:37.058Z,13.70
2023-03-21T11:57:37.327Z,9.43
2023-03-21T12:00:32.678Z,11.18
2023-03-21T12:04:02.996Z,13.13
2023-03-21T12:06:37.863Z,9.70
2023-03-21T12:09:31.305Z,9.90
2023-03-21T12:12:39.996Z,10.75
2023-03-21T12:15:27.114Z,9.18
2023-03-21T12:18:26.397Z,13.03
2023-03-21T12:20:59.727Z,10.43
2023-03-21T12:23:56.134Z,9.40
2023-03-21T12:26:32.400Z,11.35
2023-03-21T12:29:17.064Z,9.50
2023-03-21T12:32:06.640Z,12.88
2023-03-21T12:35:16.929Z,10.23
2023-03-21T12:38:17.426Z,12.07
2023-03-21T12:41:04.807Z,13.15
2023-03-21T12:43:47.278Z,9.18
2023-03-21T12:46:43.277Z,8.30
2023-03-21T12:49:22.980Z,11.23
2023-03-21T12:52:05.656Z,8.70
2023-03-21T12:54:46.823Z,7.75
2023-03-21T12:57:26.437Z,7.22
2023-03-21T13:00:11.049Z,6.53
2023-03-21T13:02:46.979Z,6.63
2023-03-21T13:05:40.727Z,7.10
2023-03-21T13:08:21.410Z,7.20
2023-03-21T13:10:49.477Z,7.63
2023-03-21T13:16:36.627Z,6.85
2023-03-21T13:19:15.757Z,7.03
2023-03-21T13:21:55.385Z,6.30
2023-03-21T13:24:49.528Z,6.75
2023-03-21T13:27:33.665Z,6.57
2023-03-21T13:30:07.301Z,6.38
2023-03-21T13:32:44.694Z,5.97
2023-03-21T13:35:33.922Z,5.68
2023-03-21T13:38:12.958Z,6.03
2023-03-21T13:40:52.114Z,6.05
2023-03-21T13:43:51.644Z,5.93
2023-03-21T13:46:24.990Z,6.22
2023-03-21T13:48:59.716Z,6.18
2023-03-21T13:51:36.534Z,6.63
2023-03-21T13:54:24.381Z,5.45
2023-03-21T13:59:40.891Z,6.47
2023-03-21T14:02:32.895Z,5.95
2023-03-21T14:05:17.749Z,6.25
2023-03-21T14:07:52.904Z,5.55
2023-03-21T14:10:43.472Z,5.38
2023-03-21T14:13:19.278Z,5.30
2023-03-21T14:16:03.572Z,5.97
2023-03-21T14:19:02.806Z,5.95
2023-03-21T14:21:35.801Z,5.72
2023-03-21T14:24:14.502Z,6.38
2023-03-21T14:26:48.128Z,5.90
2023-03-21T14:29:27.097Z,6.28
2023-03-21T14:32:00.322Z,6.57
2023-03-21T14:34:32.357Z,7.00
2023-03-21T14:36:59.903Z,11.23
2023-03-21T14:39:32.323Z,16.92
2023-03-21T14:42:07.183Z,6.28
2023-03-21T14:44:53.953Z,7.63
2023-03-21T14:49:54.436Z,8.55
2023-03-21T14:52:31.760Z,7.82
2023-03-21T14:55:01.776Z,8.57
2023-03-21T14:57:33.404Z,12.32
2023-03-21T15:00:12.705Z,7.22
2023-03-21T15:02:44.634Z,5.78
2023-03-21T15:05:29.233Z,7.38
2023-03-21T15:08:19.326Z,6.95
2023-03-21T15:11:11.745Z,6.78
2023-03-21T15:13:54.862Z,6.10
2023-03-21T15:16:23.402Z,6.25
2023-03-21T15:18:52.136Z,6.47
2023-03-21T15:21:50.547Z,8.48
2023-03-21T15:24:33.462Z,8.80
2023-03-21T15:27:06.345Z,10.15
2023-03-21T15:29:36.954Z,6.45
2023-03-21T15:32:11.549Z,11.50
2023-03-21T15:34:39.343Z,9.02
2023-03-21T15:37:17.143Z,9.35
2023-03-21T15:39:45.835Z,18.63
2023-03-21T15:42:38.909Z,11.65
2023-03-21T15:45:27.578Z,8.82
2023-03-21T15:48:09.137Z,9.77
2023-03-21T15:50:47.190Z,6.70
2023-03-21T15:53:18.677Z,6.07
2023-03-21T15:55:53.211Z,5.40
2023-03-21T15:58:25.849Z,9.27
2023-03-21T16:01:06.432Z,15.98
2023-03-21T16:03:40.562Z,7.72
2023-03-21T16:06:11.351Z,8.38
2023-03-21T16:08:52.272Z,17.60
2023-03-21T16:11:22.584Z,5.80
2023-03-21T16:13:51.471Z,12.90
2023-03-21T16:16:28.577Z,5.65
2023-03-21T16:19:00.472Z,16.33
2023-03-21T16:21:31.428Z,12.93
2023-03-21T16:23:58.942Z,6.28
2023-03-21T16:26:43.583Z,5.72
2023-03-21T16:29:14.642Z,5.68
2023-03-21T16:31:42.279Z,5.35
2023-03-21T16:34:10.819Z,5.50
2023-03-21T16:36:41.681Z,5.60
2023-03-21T16:39:27.080Z,6.80
2023-03-21T16:41:54.524Z,6.70
2023-03-21T16:44:22.137Z,6.10
2023-03-21T16:46:49.575Z,10.75
2023-03-21T16:49:26.835Z,11.10
2023-03-21T16:51:56.617Z,9.47
2023-03-21T16:54:24.144Z,18.95
2023-03-21T16:56:58.779Z,12.93
2023-03-21T16:59:26.239Z,9.43
2023-03-21T17:01:53.593Z,15.50
2023-03-21T17:04:22.133Z,15.35
2023-03-21T17:06:53.018Z,14.88
2023-03-21T17:09:26.244Z,18.00
2023-03-21T17:11:53.644Z,18.17
2023-03-21T17:14:22.170Z,19.90
2023-03-21T17:16:49.989Z,21.75
2023-03-21T17:19:26.505Z,24.30
2023-03-21T17:21:55.206Z,24.17
2023-03-21T17:24:23.860Z,26.55
2023-03-21T17:26:52.437Z,27.08
2023-03-21T17:29:19.934Z,29.80
2023-03-21T17:31:50.277Z,29.17
2023-03-21T17:34:18.102Z,30.40
2023-03-21T17:36:48.770Z,28.52
2023-03-21T17:39:26.622Z,26.52
2023-03-21T17:41:55.337Z,16.98
2023-03-21T17:44:22.941Z,15.93
2023-03-21T17:46:51.949Z,15.27
2023-03-21T17:49:21.142Z,15.05
2023-03-21T17:51:48.845Z,14.85
2023-03-21T17:54:16.242Z,14.55
2023-03-21T17:56:43.664Z,12.70
2023-03-21T17:59:15.419Z,13.40
2023-03-21T18:01:43.181Z,11.68
2023-03-21T18:04:11.228Z,11.13
2023-03-21T18:06:39.731Z,11.35
2023-03-21T18:09:11.442Z,11.30
2023-03-21T18:11:39.987Z,31.58
2023-03-21T18:14:16.178Z,23.80
2023-03-21T18:19:13.577Z,12.50
2023-03-21T18:21:44.698Z,9.85
2023-03-21T18:24:13.294Z,8.63
2023-03-21T18:26:41.522Z,7.35
2023-03-21T18:30:17.531Z,5.80
2023-03-21T18:32:06.918Z,7.10
2023-03-21T18:34:38.980Z,6.72
2023-03-21T18:37:09.131Z,7.28
2023-03-21T18:39:38.317Z,8.13
2023-03-21T18:42:06.975Z,7.53
2023-03-21T18:44:45.508Z,7.38
2023-03-21T18:47:14.565Z,7.82
2023-03-21T18:50:13.166Z,7.53
2023-03-21T18:52:29.549Z,7.32
2023-03-21T18:54:57.579Z,7.77
2023-03-21T18:57:36.447Z,6.22
2023-03-21T19:00:12.607Z,6.70
2023-03-21T19:02:48.095Z,7.70
2023-03-21T19:05:18.672Z,7.35
2023-03-21T19:07:47.820Z,7.05
2023-03-21T19:10:20.285Z,7.20
2023-03-21T19:12:49.960Z,6.80
2023-03-21T19:15:21.388Z,7.00
2023-03-21T19:20:42.150Z,6.40
2023-03-21T19:23:10.829Z,7.25
2023-03-21T19:25:38.418Z,6.35
2023-03-21T19:28:06.322Z,6.40
2023-03-21T19:30:34.779Z,5.30
2023-03-21T19:33:02.211Z,6.47
2023-03-21T19:35:29.687Z,6.60
2023-03-21T19:37:57.047Z,6.20
2023-03-21T19:40:24.602Z,6.05
2023-03-21T19:42:52.768Z,7.13
2023-03-21T19:45:20.193Z,7.40
2023-03-21T19:47:47.670Z,6.20
2023-03-21T19:53:03.317Z,4.97
2023-03-21T19:55:31.044Z,7.32
2023-03-21T19:57:58.565Z,5.60
2023-03-21T20:00:26.051Z,4.97
2023-03-21T20:02:53.644Z,5.15
2023-03-21T20:05:22.098Z,5.57
2023-03-21T20:07:50.034Z,5.53
2023-03-21T20:10:17.615Z,5.90
2023-03-21T20:12:46.130Z,5.40
2023-03-21T20:15:19.488Z,6.50
2023-03-21T20:17:49.434Z,5.72
2023-03-21T20:20:18.708Z,5.32
2023-03-21T20:23:07.887Z,4.47
2023-03-21T20:25:41.017Z,4.25
2023-03-21T20:28:24.346Z,6.38
2023-03-21T20:31:00.549Z,12.20
2023-03-21T20:33:29.221Z,6.20
2023-03-21T20:36:47.933Z,6.28
2023-03-21T20:38:52.668Z,6.25
2023-03-21T20:41:20.702Z,6.80
2023-03-21T20:46:37.696Z,6.03
2023-03-21T20:49:08.764Z,6.75
2023-03-21T20:54:23.786Z,6.57
2023-03-21T20:56:51.153Z,6.30
2023-03-21T20:59:26.498Z,7.20
2023-03-21T21:01:57.410Z,5.45
2023-03-21T21:04:48.259Z,6.57
2023-03-21T21:07:21.149Z,7.00
2023-03-21T21:09:50.048Z,8.07
2023-03-21T21:12:19.326Z,8.48
2023-03-21T21:14:48.286Z,7.97
2023-03-21T21:17:31.155Z,7.18
2023-03-21T21:20:16.959Z,6.05
2023-03-21T21:22:58.861Z,6.20
2023-03-21T21:25:26.704Z,6.95
2023-03-21T21:27:54.107Z,6.53
2023-03-21T21:30:21.510Z,5.97
2023-03-21T21:32:49.618Z,5.93
2023-03-21T21:35:19.513Z,8.20
2023-03-21T21:37:47.034Z,6.95
2023-03-21T21:40:20.236Z,6.40
2023-03-21T21:42:47.836Z,7.03
2023-03-21T21:45:15.957Z,6.00
2023-03-21T21:47:46.293Z,5.43
2023-03-21T21:50:14.566Z,5.18
2023-03-21T21:52:43.970Z,5.03
2023-03-21T21:55:13.337Z,5.30
2023-03-21T21:57:41.022Z,5.80
2023-03-21T22:00:13.569Z,5.93
2023-03-21T22:02:42.123Z,6.10
2023-03-21T22:05:10.547Z,5.82
2023-03-21T22:10:07.082Z,5.82
2023-03-21T22:12:34.705Z,5.50
2023-03-21T22:15:04.047Z,5.13
2023-03-21T22:17:31.697Z,5.45
2023-03-21T22:20:06.080Z,5.70
2023-03-21T22:22:34.796Z,7.60
2023-03-21T22:25:04.189Z,6.20
2023-03-21T22:27:31.977Z,6.35
2023-03-21T22:30:04.910Z,5.70
2023-03-21T22:32:36.720Z,5.72
2023-03-21T22:35:06.230Z,6.10
2023-03-21T22:37:36.365Z,5.65
2023-03-21T22:40:08.059Z,5.65
2023-03-21T22:42:37.498Z,5.30
2023-03-21T22:45:06.425Z,5.40
2023-03-21T22:47:34.257Z,5.50
2023-03-21T22:50:02.112Z,5.85
2023-03-21T22:52:29.607Z,6.28
2023-03-21T22:54:57.033Z,6.37
2023-03-21T22:57:25.664Z,6.57
2023-03-21T22:59:53.275Z,6.95
2023-03-21T23:02:20.665Z,7.35
2023-03-21T23:04:47.989Z,7.55
2023-03-21T23:07:15.605Z,7.57
2023-03-21T23:09:43.782Z,6.70
2023-03-21T23:12:11.173Z,7.22
2023-03-21T23:14:38.493Z,6.20
2023-03-21T23:17:05.826Z,6.38
2023-03-21T23:19:33.295Z,6.50
2023-03-21T23:22:01.300Z,6.53
2023-03-21T23:24:28.657Z,6.45
2023-03-21T23:26:56.049Z,6.10
2023-03-21T23:29:23.359Z,7.10
2023-03-21T23:31:50.895Z,6.00
2023-03-21T23:34:18.602Z,5.70
2023-03-21T23:36:46.098Z,6.22
2023-03-21T23:39:13.567Z,6.50
2023-03-21T23:41:42.803Z,6.00
2023-03-21T23:44:10.270Z,5.88
2023-03-21T23:46:37.896Z,5.60
2023-03-21T23:49:05.913Z,6.03
2023-03-21T23:51:33.441Z,6.28
2023-03-21T23:54:00.872Z,6.45
2023-03-21T23:56:28.811Z,5.28
2023-03-21T23:58:57.927Z,6.47
